sensor_id;sensor_type;location;lat;lon;timestamp;P1;durP1;ratioP1;P2;durP2;ratioP2
71856;SDS011;63344;46.980;28.882;2023-06-04T00:01:35;4.97;;;1.45;;
71856;SDS011;63344;46.980;28.882;2023-06-04T00:04:03;4.72;;;1.35;;
71856;SDS011;63344;46.980;28.882;2023-06-04T00:06:30;2.25;;;0.98;;
71856;SDS011;63344;46.980;28.882;2023-06-04T00:08:57;4.72;;;1.02;;
71856;SDS011;63344;46.980;28.882;2023-06-04T00:11:26;2.25;;;1.20;;
71856;SDS011;63344;46.980;28.882;2023-06-04T00:13:53;1.55;;;0.82;;
71856;SDS011;63344;46.980;28.882;2023-06-04T00:16:24;4.65;;;1.13;;
71856;SDS011;63344;46.980;28.882;2023-06-04T00:18:52;2.45;;;1.30;;
71856;SDS011;63344;46.980;28.882;2023-06-04T00:21:19;2.67;;;1.23;;
71856;SDS011;63344;46.980;28.882;2023-06-04T00:23:47;3.92;;;1.17;;
71856;SDS011;63344;46.980;28.882;2023-06-04T00:26:14;4.60;;;1.73;;
71856;SDS011;63344;46.980;28.882;2023-06-04T00:28:43;2.30;;;1.20;;
71856;SDS011;63344;46.980;28.882;2023-06-04T00:31:10;4.93;;;1.30;;
71856;SDS011;63344;46.980;28.882;2023-06-04T00:33:40;2.20;;;1.10;;
71856;SDS011;63344;46.980;28.882;2023-06-04T00:36:07;4.07;;;1.40;;
71856;SDS011;63344;46.980;28.882;2023-06-04T00:38:35;2.47;;;1.17;;
71856;SDS011;63344;46.980;28.882;2023-06-04T00:41:02;2.45;;;0.90;;
71856;SDS011;63344;46.980;28.882;2023-06-04T00:43:35;2.25;;;1.10;;
71856;SDS011;63344;46.980;28.882;2023-06-04T00:46:02;3.50;;;1.77;;
71856;SDS011;63344;46.980;28.882;2023-06-04T00:48:31;3.30;;;1.73;;
71856;SDS011;63344;46.980;28.882;2023-06-04T00:50:58;5.85;;;1.50;;
71856;SDS011;63344;46.980;28.882;2023-06-04T00:53:27;4.03;;;1.50;;
71856;SDS011;63344;46.980;28.882;2023-06-04T00:55:55;6.05;;;1.35;;
71856;SDS011;63344;46.980;28.882;2023-06-04T00:58:23;4.18;;;2.10;;
71856;SDS011;63344;46.980;28.882;2023-06-04T01:00:52;3.70;;;1.50;;
71856;SDS011;63344;46.980;28.882;2023-06-04T01:03:23;2.90;;;1.35;;
71856;SDS011;63344;46.980;28.882;2023-06-04T01:08:53;5.13;;;1.45;;
71856;SDS011;63344;46.980;28.882;2023-06-04T01:11:31;3.90;;;0.80;;
71856;SDS011;63344;46.980;28.882;2023-06-04T01:14:00;3.17;;;1.45;;
71856;SDS011;63344;46.980;28.882;2023-06-04T01:16:29;3.33;;;1.50;;
71856;SDS011;63344;46.980;28.882;2023-06-04T01:19:05;1.98;;;1.35;;
71856;SDS011;63344;46.980;28.882;2023-06-04T01:22:02;3.30;;;1.40;;
71856;SDS011;63344;46.980;28.882;2023-06-04T01:24:39;5.05;;;2.25;;
71856;SDS011;63344;46.980;28.882;2023-06-04T01:27:08;10.43;;;1.83;;
71856;SDS011;63344;46.980;28.882;2023-06-04T01:29:36;3.08;;;1.77;;
71856;SDS011;63344;46.980;28.882;2023-06-04T01:32:03;3.28;;;1.88;;
71856;SDS011;63344;46.980;28.882;2023-06-04T01:34:42;6.65;;;1.70;;
71856;SDS011;63344;46.980;28.882;2023-06-04T01:37:10;5.20;;;2.05;;
71856;SDS011;63344;46.980;28.882;2023-06-04T01:39:38;4.50;;;2.10;;
71856;SDS011;63344;46.980;28.882;2023-06-04T01:42:06;4.68;;;1.98;;
71856;SDS011;63344;46.980;28.882;2023-06-04T01:44:33;2.65;;;1.77;;
71856;SDS011;63344;46.980;28.882;2023-06-04T01:47:01;4.30;;;1.92;;
71856;SDS011;63344;46.980;28.882;2023-06-04T01:49:30;4.35;;;1.73;;
71856;SDS011;63344;46.980;28.882;2023-06-04T01:51:57;7.47;;;2.17;;
71856;SDS011;63344;46.980;28.882;2023-06-04T01:54:25;6.63;;;2.28;;
71856;SDS011;63344;46.980;28.882;2023-06-04T01:56:52;3.78;;;1.70;;
71856;SDS011;63344;46.980;28.882;2023-06-04T01:59:20;5.05;;;2.05;;
71856;SDS011;63344;46.980;28.882;2023-06-04T02:01:47;4.47;;;2.08;;
71856;SDS011;63344;46.980;28.882;2023-06-04T02:04:16;4.40;;;2.05;;
71856;SDS011;63344;46.980;28.882;2023-06-04T02:06:43;7.13;;;2.20;;
71856;SDS011;63344;46.980;28.882;2023-06-04T02:09:11;7.35;;;2.10;;
71856;SDS011;63344;46.980;28.882;2023-06-04T02:11:39;6.28;;;2.35;;
71856;SDS011;63344;46.980;28.882;2023-06-04T02:14:06;8.15;;;2.10;;
71856;SDS011;63344;46.980;28.882;2023-06-04T02:16:33;4.50;;;2.10;;
71856;SDS011;63344;46.980;28.882;2023-06-04T02:19:01;5.25;;;1.92;;
71856;SDS011;63344;46.980;28.882;2023-06-04T02:21:29;4.45;;;2.05;;
71856;SDS011;63344;46.980;28.882;2023-06-04T02:23:57;4.15;;;2.40;;
71856;SDS011;63344;46.980;28.882;2023-06-04T02:26:25;5.47;;;2.20;;
71856;SDS011;63344;46.980;28.882;2023-06-04T02:28:52;7.38;;;1.83;;
71856;SDS011;63344;46.980;28.882;2023-06-04T02:31:20;3.13;;;2.00;;
71856;SDS011;63344;46.980;28.882;2023-06-04T02:33:49;3.65;;;1.67;;
71856;SDS011;63344;46.980;28.882;2023-06-04T02:36:17;4.78;;;2.60;;
71856;SDS011;63344;46.980;28.882;2023-06-04T02:38:44;4.80;;;2.28;;
71856;SDS011;63344;46.980;28.882;2023-06-04T02:41:12;6.85;;;2.60;;
71856;SDS011;63344;46.980;28.882;2023-06-04T02:43:40;6.38;;;2.22;;
71856;SDS011;63344;46.980;28.882;2023-06-04T02:46:08;5.57;;;2.80;;
71856;SDS011;63344;46.980;28.882;2023-06-04T02:48:36;3.83;;;2.70;;
71856;SDS011;63344;46.980;28.882;2023-06-04T02:51:03;7.68;;;3.75;;
71856;SDS011;63344;46.980;28.882;2023-06-04T02:53:32;5.70;;;2.53;;
71856;SDS011;63344;46.980;28.882;2023-06-04T02:55:59;4.90;;;2.00;;
71856;SDS011;63344;46.980;28.882;2023-06-04T02:58:29;3.00;;;2.17;;
71856;SDS011;63344;46.980;28.882;2023-06-04T03:00:59;5.70;;;1.80;;
71856;SDS011;63344;46.980;28.882;2023-06-04T03:03:42;7.55;;;1.98;;
71856;SDS011;63344;46.980;28.882;2023-06-04T03:06:12;4.63;;;2.30;;
71856;SDS011;63344;46.980;28.882;2023-06-04T03:08:41;9.55;;;2.58;;
71856;SDS011;63344;46.980;28.882;2023-06-04T03:11:09;4.38;;;2.33;;
71856;SDS011;63344;46.980;28.882;2023-06-04T03:13:37;5.80;;;2.10;;
71856;SDS011;63344;46.980;28.882;2023-06-04T03:16:06;4.95;;;3.85;;
71856;SDS011;63344;46.980;28.882;2023-06-04T03:18:36;13.65;;;5.60;;
71856;SDS011;63344;46.980;28.882;2023-06-04T03:21:10;4.82;;;3.25;;
71856;SDS011;63344;46.980;28.882;2023-06-04T03:23:40;3.50;;;2.05;;
71856;SDS011;63344;46.980;28.882;2023-06-04T03:26:08;21.75;;;4.32;;
71856;SDS011;63344;46.980;28.882;2023-06-04T03:28:35;5.25;;;2.70;;
71856;SDS011;63344;46.980;28.882;2023-06-04T03:31:03;4.13;;;2.67;;
71856;SDS011;63344;46.980;28.882;2023-06-04T03:33:30;7.57;;;3.88;;
71856;SDS011;63344;46.980;28.882;2023-06-04T03:35:58;5.88;;;3.13;;
71856;SDS011;63344;46.980;28.882;2023-06-04T03:38:26;4.25;;;2.50;;
71856;SDS011;63344;46.980;28.882;2023-06-04T03:40:53;6.60;;;3.90;;
71856;SDS011;63344;46.980;28.882;2023-06-04T03:43:22;11.57;;;4.78;;
71856;SDS011;63344;46.980;28.882;2023-06-04T03:45:51;6.63;;;3.45;;
71856;SDS011;63344;46.980;28.882;2023-06-04T03:48:18;10.82;;;4.03;;
71856;SDS011;63344;46.980;28.882;2023-06-04T03:50:45;6.80;;;3.47;;
71856;SDS011;63344;46.980;28.882;2023-06-04T03:53:13;6.82;;;3.38;;
71856;SDS011;63344;46.980;28.882;2023-06-04T03:55:40;3.00;;;2.40;;
71856;SDS011;63344;46.980;28.882;2023-06-04T03:58:08;8.02;;;3.72;;
71856;SDS011;63344;46.980;28.882;2023-06-04T04:00:38;6.45;;;2.95;;
71856;SDS011;63344;46.980;28.882;2023-06-04T04:06:05;4.53;;;2.67;;
71856;SDS011;63344;46.980;28.882;2023-06-04T04:08:35;5.97;;;1.88;;
71856;SDS011;63344;46.980;28.882;2023-06-04T04:11:04;5.90;;;2.03;;
71856;SDS011;63344;46.980;28.882;2023-06-04T04:13:47;3.35;;;1.80;;
71856;SDS011;63344;46.980;28.882;2023-06-04T04:16:14;4.85;;;2.15;;
71856;SDS011;63344;46.980;28.882;2023-06-04T04:18:42;4.68;;;1.98;;
71856;SDS011;63344;46.980;28.882;2023-06-04T04:21:13;3.65;;;1.80;;
71856;SDS011;63344;46.980;28.882;2023-06-04T04:23:40;4.30;;;1.77;;
71856;SDS011;63344;46.980;28.882;2023-06-04T04:26:08;4.30;;;1.90;;
71856;SDS011;63344;46.980;28.882;2023-06-04T04:28:37;4.93;;;1.83;;
71856;SDS011;63344;46.980;28.882;2023-06-04T04:31:35;5.25;;;1.83;;
71856;SDS011;63344;46.980;28.882;2023-06-04T04:34:03;4.72;;;1.70;;
71856;SDS011;63344;46.980;28.882;2023-06-04T04:36:34;5.45;;;1.70;;
71856;SDS011;63344;46.980;28.882;2023-06-04T04:39:03;5.82;;;2.47;;
71856;SDS011;63344;46.980;28.882;2023-06-04T04:41:30;2.35;;;1.23;;
71856;SDS011;63344;46.980;28.882;2023-06-04T04:44:04;3.78;;;1.83;;
71856;SDS011;63344;46.980;28.882;2023-06-04T04:46:32;2.75;;;1.58;;
71856;SDS011;63344;46.980;28.882;2023-06-04T04:49:01;2.72;;;1.63;;
71856;SDS011;63344;46.980;28.882;2023-06-04T04:51:28;3.17;;;1.77;;
71856;SDS011;63344;46.980;28.882;2023-06-04T04:53:58;4.82;;;2.75;;
71856;SDS011;63344;46.980;28.882;2023-06-04T04:56:34;3.83;;;1.40;;
71856;SDS011;63344;46.980;28.882;2023-06-04T04:59:02;2.00;;;1.30;;
71856;SDS011;63344;46.980;28.882;2023-06-04T05:01:29;3.95;;;1.55;;
71856;SDS011;63344;46.980;28.882;2023-06-04T05:03:57;2.85;;;1.15;;
71856;SDS011;63344;46.980;28.882;2023-06-04T05:06:26;3.40;;;0.93;;
71856;SDS011;63344;46.980;28.882;2023-06-04T05:08:53;2.40;;;1.15;;
71856;SDS011;63344;46.980;28.882;2023-06-04T05:11:22;3.08;;;1.20;;
71856;SDS011;63344;46.980;28.882;2023-06-04T05:14:20;1.10;;;1.00;;
71856;SDS011;63344;46.980;28.882;2023-06-04T05:17:16;1.70;;;1.13;;
71856;SDS011;63344;46.980;28.882;2023-06-04T05:19:48;2.65;;;1.30;;
71856;SDS011;63344;46.980;28.882;2023-06-04T05:22:16;2.55;;;1.00;;
71856;SDS011;63344;46.980;28.882;2023-06-04T05:25:14;2.00;;;0.80;;
71856;SDS011;63344;46.980;28.882;2023-06-04T05:27:51;3.72;;;1.35;;
71856;SDS011;63344;46.980;28.882;2023-06-04T05:30:23;1.55;;;1.10;;
71856;SDS011;63344;46.980;28.882;2023-06-04T05:32:50;3.50;;;0.95;;
71856;SDS011;63344;46.980;28.882;2023-06-04T05:35:36;2.22;;;0.98;;
71856;SDS011;63344;46.980;28.882;2023-06-04T05:38:08;2.80;;;1.08;;
71856;SDS011;63344;46.980;28.882;2023-06-04T05:40:36;2.17;;;0.80;;
71856;SDS011;63344;46.980;28.882;2023-06-04T05:43:03;2.90;;;0.80;;
71856;SDS011;63344;46.980;28.882;2023-06-04T05:45:43;3.33;;;1.60;;
71856;SDS011;63344;46.980;28.882;2023-06-04T05:48:11;1.85;;;0.80;;
71856;SDS011;63344;46.980;28.882;2023-06-04T05:50:38;1.35;;;0.82;;
71856;SDS011;63344;46.980;28.882;2023-06-04T05:53:06;1.73;;;1.00;;
71856;SDS011;63344;46.980;28.882;2023-06-04T05:55:33;1.73;;;0.80;;
71856;SDS011;63344;46.980;28.882;2023-06-04T05:58:01;1.73;;;0.77;;
71856;SDS011;63344;46.980;28.882;2023-06-04T06:00:29;3.22;;;0.70;;
71856;SDS011;63344;46.980;28.882;2023-06-04T06:02:57;1.60;;;0.60;;
71856;SDS011;63344;46.980;28.882;2023-06-04T06:05:29;1.52;;;0.60;;
71856;SDS011;63344;46.980;28.882;2023-06-04T06:07:57;3.35;;;0.70;;
71856;SDS011;63344;46.980;28.882;2023-06-04T06:10:24;0.65;;;0.38;;
71856;SDS011;63344;46.980;28.882;2023-06-04T06:12:54;5.35;;;0.73;;
71856;SDS011;63344;46.980;28.882;2023-06-04T06:15:21;5.28;;;0.95;;
71856;SDS011;63344;46.980;28.882;2023-06-04T06:20:18;1.98;;;0.43;;
71856;SDS011;63344;46.980;28.882;2023-06-04T06:22:46;3.67;;;0.60;;
71856;SDS011;63344;46.980;28.882;2023-06-04T06:25:13;1.13;;;0.40;;
71856;SDS011;63344;46.980;28.882;2023-06-04T06:27:44;1.38;;;0.40;;
71856;SDS011;63344;46.980;28.882;2023-06-04T06:30:11;1.70;;;0.30;;
71856;SDS011;63344;46.980;28.882;2023-06-04T06:32:40;1.42;;;0.57;;
71856;SDS011;63344;46.980;28.882;2023-06-04T06:35:07;1.05;;;0.40;;
71856;SDS011;63344;46.980;28.882;2023-06-04T06:37:38;1.60;;;0.52;;
71856;SDS011;63344;46.980;28.882;2023-06-04T06:40:09;2.65;;;0.43;;
71856;SDS011;63344;46.980;28.882;2023-06-04T06:42:57;2.53;;;0.63;;
71856;SDS011;63344;46.980;28.882;2023-06-04T06:45:24;1.95;;;0.60;;
71856;SDS011;63344;46.980;28.882;2023-06-04T06:47:52;0.73;;;0.28;;
71856;SDS011;63344;46.980;28.882;2023-06-04T06:50:23;3.90;;;1.15;;
71856;SDS011;63344;46.980;28.882;2023-06-04T06:53:30;9.55;;;3.80;;
71856;SDS011;63344;46.980;28.882;2023-06-04T06:56:04;3.38;;;0.50;;
71856;SDS011;63344;46.980;28.882;2023-06-04T06:58:35;1.60;;;0.75;;
71856;SDS011;63344;46.980;28.882;2023-06-04T07:01:07;0.30;;;0.10;;
71856;SDS011;63344;46.980;28.882;2023-06-04T07:03:36;2.35;;;0.50;;
71856;SDS011;63344;46.980;28.882;2023-06-04T07:06:06;1.60;;;0.50;;
71856;SDS011;63344;46.980;28.882;2023-06-04T07:08:36;0.85;;;0.30;;
71856;SDS011;63344;46.980;28.882;2023-06-04T07:11:04;1.85;;;0.38;;
71856;SDS011;63344;46.980;28.882;2023-06-04T07:13:31;1.20;;;0.40;;
71856;SDS011;63344;46.980;28.882;2023-06-04T07:16:01;1.42;;;0.50;;
71856;SDS011;63344;46.980;28.882;2023-06-04T07:18:28;4.03;;;0.60;;
71856;SDS011;63344;46.980;28.882;2023-06-04T07:21:11;1.42;;;0.60;;
71856;SDS011;63344;46.980;28.882;2023-06-04T07:23:38;0.50;;;0.17;;
71856;SDS011;63344;46.980;28.882;2023-06-04T07:26:42;0.75;;;0.28;;
71856;SDS011;63344;46.980;28.882;2023-06-04T07:30:05;3.17;;;0.47;;
71856;SDS011;63344;46.980;28.882;2023-06-04T07:32:47;0.60;;;0.30;;
71856;SDS011;63344;46.980;28.882;2023-06-04T07:35:16;0.60;;;0.35;;
71856;SDS011;63344;46.980;28.882;2023-06-04T07:38:00;4.47;;;0.40;;
71856;SDS011;63344;46.980;28.882;2023-06-04T07:42:56;1.13;;;0.47;;
71856;SDS011;63344;46.980;28.882;2023-06-04T07:45:25;1.00;;;0.50;;
71856;SDS011;63344;46.980;28.882;2023-06-04T07:47:55;0.90;;;0.45;;
71856;SDS011;63344;46.980;28.882;2023-06-04T07:50:25;1.80;;;0.22;;
71856;SDS011;63344;46.980;28.882;2023-06-04T07:53:09;2.30;;;0.60;;
71856;SDS011;63344;46.980;28.882;2023-06-04T07:55:48;1.70;;;0.40;;
71856;SDS011;63344;46.980;28.882;2023-06-04T08:00:48;1.85;;;0.30;;
71856;SDS011;63344;46.980;28.882;2023-06-04T08:03:15;1.35;;;0.40;;
71856;SDS011;63344;46.980;28.882;2023-06-04T08:05:47;0.88;;;0.20;;
71856;SDS011;63344;46.980;28.882;2023-06-04T08:08:14;1.20;;;0.40;;
71856;SDS011;63344;46.980;28.882;2023-06-04T08:10:43;2.78;;;0.40;;
71856;SDS011;63344;46.980;28.882;2023-06-04T08:13:10;2.83;;;0.57;;
71856;SDS011;63344;46.980;28.882;2023-06-04T08:15:38;1.40;;;0.40;;
71856;SDS011;63344;46.980;28.882;2023-06-04T08:18:08;1.45;;;0.32;;
71856;SDS011;63344;46.980;28.882;2023-06-04T08:20:52;0.80;;;0.25;;
71856;SDS011;63344;46.980;28.882;2023-06-04T08:23:23;0.65;;;0.25;;
71856;SDS011;63344;46.980;28.882;2023-06-04T08:26:11;0.82;;;0.32;;
71856;SDS011;63344;46.980;28.882;2023-06-04T08:28:38;3.13;;;1.85;;
71856;SDS011;63344;46.980;28.882;2023-06-04T08:31:06;4.82;;;1.23;;
71856;SDS011;63344;46.980;28.882;2023-06-04T08:33:33;1.45;;;0.88;;
71856;SDS011;63344;46.980;28.882;2023-06-04T08:36:19;1.52;;;1.42;;
71856;SDS011;63344;46.980;28.882;2023-06-04T08:38:46;1.30;;;1.00;;
71856;SDS011;63344;46.980;28.882;2023-06-04T08:41:29;3.42;;;1.20;;
71856;SDS011;63344;46.980;28.882;2023-06-04T08:44:27;2.67;;;1.10;;
71856;SDS011;63344;46.980;28.882;2023-06-04T08:46:58;2.20;;;1.30;;
71856;SDS011;63344;46.980;28.882;2023-06-04T08:49:29;2.97;;;1.10;;
71856;SDS011;63344;46.980;28.882;2023-06-04T08:52:16;3.15;;;1.50;;
71856;SDS011;63344;46.980;28.882;2023-06-04T08:54:51;2.03;;;1.10;;
71856;SDS011;63344;46.980;28.882;2023-06-04T08:57:22;2.80;;;1.17;;
71856;SDS011;63344;46.980;28.882;2023-06-04T08:59:49;2.85;;;1.35;;
71856;SDS011;63344;46.980;28.882;2023-06-04T09:02:17;2.38;;;1.02;;
71856;SDS011;63344;46.980;28.882;2023-06-04T09:04:45;3.60;;;1.27;;
71856;SDS011;63344;46.980;28.882;2023-06-04T09:07:52;1.42;;;1.20;;
71856;SDS011;63344;46.980;28.882;2023-06-04T09:10:35;1.10;;;1.00;;
71856;SDS011;63344;46.980;28.882;2023-06-04T09:13:11;1.88;;;1.25;;
71856;SDS011;63344;46.980;28.882;2023-06-04T09:16:24;1.75;;;1.33;;
71856;SDS011;63344;46.980;28.882;2023-06-04T09:18:52;2.42;;;1.83;;
71856;SDS011;63344;46.980;28.882;2023-06-04T09:21:21;1.27;;;1.15;;
71856;SDS011;63344;46.980;28.882;2023-06-04T09:24:21;1.52;;;0.98;;
71856;SDS011;63344;46.980;28.882;2023-06-04T09:26:52;1.05;;;0.95;;
71856;SDS011;63344;46.980;28.882;2023-06-04T09:29:19;1.92;;;1.55;;
71856;SDS011;63344;46.980;28.882;2023-06-04T09:31:56;2.72;;;1.85;;
71856;SDS011;63344;46.980;28.882;2023-06-04T09:34:28;2.05;;;1.10;;
71856;SDS011;63344;46.980;28.882;2023-06-04T09:36:57;1.40;;;1.20;;
71856;SDS011;63344;46.980;28.882;2023-06-04T09:39:25;1.20;;;1.10;;
71856;SDS011;63344;46.980;28.882;2023-06-04T09:41:57;1.70;;;1.20;;
71856;SDS011;63344;46.980;28.882;2023-06-04T09:44:45;2.28;;;1.30;;
71856;SDS011;63344;46.980;28.882;2023-06-04T09:47:18;1.25;;;0.98;;
71856;SDS011;63344;46.980;28.882;2023-06-04T09:49:46;1.05;;;0.90;;
71856;SDS011;63344;46.980;28.882;2023-06-04T09:52:14;2.75;;;1.33;;
71856;SDS011;63344;46.980;28.882;2023-06-04T09:54:42;1.13;;;1.00;;
71856;SDS011;63344;46.980;28.882;2023-06-04T09:57:14;2.75;;;1.25;;
71856;SDS011;63344;46.980;28.882;2023-06-04T09:59:46;1.30;;;0.90;;
71856;SDS011;63344;46.980;28.882;2023-06-04T10:02:19;1.48;;;1.23;;
71856;SDS011;63344;46.980;28.882;2023-06-04T10:05:53;3.00;;;1.42;;
71856;SDS011;63344;46.980;28.882;2023-06-04T10:08:57;4.72;;;1.85;;
71856;SDS011;63344;46.980;28.882;2023-06-04T10:11:44;3.40;;;1.02;;
71856;SDS011;63344;46.980;28.882;2023-06-04T10:16:50;4.10;;;1.10;;
71856;SDS011;63344;46.980;28.882;2023-06-04T10:19:18;2.50;;;1.02;;
71856;SDS011;63344;46.980;28.882;2023-06-04T10:22:01;3.25;;;1.40;;
71856;SDS011;63344;46.980;28.882;2023-06-04T10:24:29;2.63;;;0.73;;
71856;SDS011;63344;46.980;28.882;2023-06-04T10:26:57;1.40;;;1.00;;
71856;SDS011;63344;46.980;28.882;2023-06-04T10:29:32;0.80;;;0.70;;
71856;SDS011;63344;46.980;28.882;2023-06-04T10:32:04;1.40;;;1.00;;
71856;SDS011;63344;46.980;28.882;2023-06-04T10:37:30;2.28;;;0.70;;
71856;SDS011;63344;46.980;28.882;2023-06-04T10:40:32;1.58;;;0.60;;
71856;SDS011;63344;46.980;28.882;2023-06-04T10:45:45;1.85;;;0.80;;
71856;SDS011;63344;46.980;28.882;2023-06-04T10:48:12;1.40;;;0.68;;
71856;SDS011;63344;46.980;28.882;2023-06-04T10:50:51;2.28;;;0.73;;
71856;SDS011;63344;46.980;28.882;2023-06-04T10:53:19;2.40;;;0.73;;
71856;SDS011;63344;46.980;28.882;2023-06-04T10:55:48;1.45;;;0.90;;
71856;SDS011;63344;46.980;28.882;2023-06-04T10:58:17;1.50;;;1.00;;
71856;SDS011;63344;46.980;28.882;2023-06-04T11:00:49;1.45;;;0.75;;
71856;SDS011;63344;46.980;28.882;2023-06-04T11:03:17;1.88;;;0.30;;
71856;SDS011;63344;46.980;28.882;2023-06-04T11:08:26;2.45;;;0.52;;
71856;SDS011;63344;46.980;28.882;2023-06-04T11:13:24;2.58;;;0.80;;
71856;SDS011;63344;46.980;28.882;2023-06-04T11:15:58;1.33;;;0.50;;
71856;SDS011;63344;46.980;28.882;2023-06-04T11:18:25;0.85;;;0.50;;
71856;SDS011;63344;46.980;28.882;2023-06-04T11:20:59;2.55;;;0.50;;
71856;SDS011;63344;46.980;28.882;2023-06-04T11:23:32;1.33;;;0.60;;
71856;SDS011;63344;46.980;28.882;2023-06-04T11:26:00;0.57;;;0.20;;
71856;SDS011;63344;46.980;28.882;2023-06-04T11:28:28;1.13;;;0.35;;
71856;SDS011;63344;46.980;28.882;2023-06-04T11:30:59;2.97;;;0.60;;
71856;SDS011;63344;46.980;28.882;2023-06-04T11:33:42;1.88;;;0.70;;
71856;SDS011;63344;46.980;28.882;2023-06-04T11:36:28;1.23;;;0.57;;
71856;SDS011;63344;46.980;28.882;2023-06-04T11:38:58;0.80;;;0.50;;
71856;SDS011;63344;46.980;28.882;2023-06-04T11:41:29;1.38;;;0.43;;
71856;SDS011;63344;46.980;28.882;2023-06-04T11:43:57;4.20;;;0.57;;
71856;SDS011;63344;46.980;28.882;2023-06-04T11:46:39;1.75;;;0.38;;
71856;SDS011;63344;46.980;28.882;2023-06-04T11:49:16;1.88;;;0.40;;
71856;SDS011;63344;46.980;28.882;2023-06-04T11:51:45;1.08;;;0.40;;
71856;SDS011;63344;46.980;28.882;2023-06-04T11:54:16;1.15;;;0.55;;
71856;SDS011;63344;46.980;28.882;2023-06-04T11:56:45;1.85;;;0.52;;
71856;SDS011;63344;46.980;28.882;2023-06-04T11:59:15;2.08;;;0.40;;
71856;SDS011;63344;46.980;28.882;2023-06-04T12:01:44;0.93;;;0.50;;
71856;SDS011;63344;46.980;28.882;2023-06-04T12:04:14;1.27;;;0.40;;
71856;SDS011;63344;46.980;28.882;2023-06-04T12:06:53;2.28;;;0.47;;
71856;SDS011;63344;46.980;28.882;2023-06-04T12:09:29;3.33;;;0.30;;
71856;SDS011;63344;46.980;28.882;2023-06-04T12:12:07;1.38;;;0.38;;
71856;SDS011;63344;46.980;28.882;2023-06-04T12:14:35;0.95;;;0.40;;
71856;SDS011;63344;46.980;28.882;2023-06-04T12:17:06;3.47;;;0.63;;
71856;SDS011;63344;46.980;28.882;2023-06-04T12:19:48;2.00;;;0.50;;
71856;SDS011;63344;46.980;28.882;2023-06-04T12:22:18;2.35;;;0.43;;
71856;SDS011;63344;46.980;28.882;2023-06-04T12:24:47;3.03;;;1.33;;
71856;SDS011;63344;46.980;28.882;2023-06-04T12:27:49;2.97;;;0.60;;
71856;SDS011;63344;46.980;28.882;2023-06-04T12:30:17;1.63;;;0.50;;
71856;SDS011;63344;46.980;28.882;2023-06-04T12:32:44;1.70;;;0.52;;
71856;SDS011;63344;46.980;28.882;2023-06-04T12:35:14;1.45;;;0.50;;
71856;SDS011;63344;46.980;28.882;2023-06-04T12:37:42;1.40;;;0.50;;
71856;SDS011;63344;46.980;28.882;2023-06-04T12:40:26;1.25;;;0.50;;
71856;SDS011;63344;46.980;28.882;2023-06-04T12:42:56;2.42;;;1.00;;
71856;SDS011;63344;46.980;28.882;2023-06-04T12:45:29;0.82;;;0.28;;
71856;SDS011;63344;46.980;28.882;2023-06-04T12:47:59;0.85;;;0.43;;
71856;SDS011;63344;46.980;28.882;2023-06-04T12:50:30;1.63;;;0.60;;
71856;SDS011;63344;46.980;28.882;2023-06-04T12:53:11;0.60;;;0.20;;
71856;SDS011;63344;46.980;28.882;2023-06-04T12:55:39;2.33;;;0.57;;
71856;SDS011;63344;46.980;28.882;2023-06-04T12:58:06;1.40;;;0.60;;
71856;SDS011;63344;46.980;28.882;2023-06-04T13:00:34;0.95;;;0.47;;
71856;SDS011;63344;46.980;28.882;2023-06-04T13:03:01;0.68;;;0.30;;
71856;SDS011;63344;46.980;28.882;2023-06-04T13:05:31;0.80;;;0.40;;
71856;SDS011;63344;46.980;28.882;2023-06-04T13:08:08;1.65;;;0.88;;
71856;SDS011;63344;46.980;28.882;2023-06-04T13:10:36;1.05;;;0.50;;
71856;SDS011;63344;46.980;28.882;2023-06-04T13:13:28;1.42;;;0.50;;
71856;SDS011;63344;46.980;28.882;2023-06-04T13:15:56;1.40;;;0.60;;
71856;SDS011;63344;46.980;28.882;2023-06-04T13:18:23;0.88;;;0.30;;
71856;SDS011;63344;46.980;28.882;2023-06-04T13:20:52;1.02;;;0.55;;
71856;SDS011;63344;46.980;28.882;2023-06-04T13:23:19;0.90;;;0.40;;
71856;SDS011;63344;46.980;28.882;2023-06-04T13:25:47;1.42;;;0.70;;
71856;SDS011;63344;46.980;28.882;2023-06-04T13:28:15;1.73;;;0.70;;
71856;SDS011;63344;46.980;28.882;2023-06-04T13:30:50;1.20;;;0.55;;
71856;SDS011;63344;46.980;28.882;2023-06-04T13:33:17;1.20;;;0.57;;
71856;SDS011;63344;46.980;28.882;2023-06-04T13:35:46;1.00;;;0.50;;
71856;SDS011;63344;46.980;28.882;2023-06-04T13:38:13;1.20;;;0.60;;
71856;SDS011;63344;46.980;28.882;2023-06-04T13:40:43;1.15;;;0.40;;
71856;SDS011;63344;46.980;28.882;2023-06-04T13:43:11;2.03;;;0.70;;
71856;SDS011;63344;46.980;28.882;2023-06-04T13:45:39;0.85;;;0.40;;
71856;SDS011;63344;46.980;28.882;2023-06-04T13:48:07;1.58;;;0.55;;
71856;SDS011;63344;46.980;28.882;2023-06-04T13:50:35;1.50;;;0.80;;
71856;SDS011;63344;46.980;28.882;2023-06-04T13:53:02;1.00;;;0.40;;
71856;SDS011;63344;46.980;28.882;2023-06-04T13:55:30;0.50;;;0.20;;
71856;SDS011;63344;46.980;28.882;2023-06-04T13:57:57;2.40;;;0.90;;
71856;SDS011;63344;46.980;28.882;2023-06-04T14:00:25;1.08;;;0.40;;
71856;SDS011;63344;46.980;28.882;2023-06-04T14:06:01;1.75;;;0.40;;
71856;SDS011;63344;46.980;28.882;2023-06-04T14:08:30;0.40;;;0.10;;
71856;SDS011;63344;46.980;28.882;2023-06-04T14:10:58;1.50;;;0.47;;
71856;SDS011;63344;46.980;28.882;2023-06-04T14:13:58;0.70;;;0.30;;
71856;SDS011;63344;46.980;28.882;2023-06-04T14:16:26;1.88;;;0.40;;
71856;SDS011;63344;46.980;28.882;2023-06-04T14:18:53;1.05;;;0.50;;
71856;SDS011;63344;46.980;28.882;2023-06-04T14:21:35;3.47;;;0.40;;
71856;SDS011;63344;46.980;28.882;2023-06-04T14:24:09;0.65;;;0.32;;
71856;SDS011;63344;46.980;28.882;2023-06-04T14:26:53;1.05;;;0.40;;
71856;SDS011;63344;46.980;28.882;2023-06-04T14:29:24;3.70;;;0.30;;
71856;SDS011;63344;46.980;28.882;2023-06-04T14:31:51;0.85;;;0.38;;
71856;SDS011;63344;46.980;28.882;2023-06-04T14:34:19;0.95;;;0.30;;
71856;SDS011;63344;46.980;28.882;2023-06-04T14:37:10;1.05;;;0.63;;
71856;SDS011;63344;46.980;28.882;2023-06-04T14:39:37;2.05;;;0.52;;
71856;SDS011;63344;46.980;28.882;2023-06-04T14:42:04;2.95;;;0.60;;
71856;SDS011;63344;46.980;28.882;2023-06-04T14:44:32;1.83;;;0.20;;
71856;SDS011;63344;46.980;28.882;2023-06-04T14:47:00;0.90;;;0.30;;
71856;SDS011;63344;46.980;28.882;2023-06-04T14:49:27;1.13;;;0.38;;
71856;SDS011;63344;46.980;28.882;2023-06-04T14:51:55;1.17;;;0.35;;
71856;SDS011;63344;46.980;28.882;2023-06-04T14:54:22;1.30;;;0.63;;
71856;SDS011;63344;46.980;28.882;2023-06-04T14:56:51;0.80;;;0.40;;
71856;SDS011;63344;46.980;28.882;2023-06-04T14:59:18;0.60;;;0.30;;
71856;SDS011;63344;46.980;28.882;2023-06-04T15:02:04;2.42;;;0.50;;
71856;SDS011;63344;46.980;28.882;2023-06-04T15:05:07;1.15;;;0.60;;
71856;SDS011;63344;46.980;28.882;2023-06-04T15:07:37;0.90;;;0.30;;
71856;SDS011;63344;46.980;28.882;2023-06-04T15:10:08;0.80;;;0.50;;
71856;SDS011;63344;46.980;28.882;2023-06-04T15:12:35;1.60;;;0.73;;
71856;SDS011;63344;46.980;28.882;2023-06-04T15:15:05;2.05;;;0.40;;
71856;SDS011;63344;46.980;28.882;2023-06-04T15:17:37;0.80;;;0.40;;
71856;SDS011;63344;46.980;28.882;2023-06-04T15:20:05;5.65;;;0.70;;
71856;SDS011;63344;46.980;28.882;2023-06-04T15:22:35;2.08;;;0.82;;
71856;SDS011;63344;46.980;28.882;2023-06-04T15:25:05;0.60;;;0.30;;
71856;SDS011;63344;46.980;28.882;2023-06-04T15:27:33;2.28;;;0.60;;
71856;SDS011;63344;46.980;28.882;2023-06-04T15:30:01;1.52;;;0.73;;
71856;SDS011;63344;46.980;28.882;2023-06-04T15:34:58;1.73;;;0.35;;